DLH2FE LOWI-EDDF
Flight info
| Callsign | DLH2FE |
|---|---|
| Flight time | 0h 48m |
| Altitude | 34000 |
| Route | KOGOL M726 ERNAS T161 DEBHI DEBHI1B |
| Aircraft | A320/M-SDE3FGHIRWY/LB1 |
Departure
| Time | 2026-05-06 19:06 |
|---|---|
| Airport | Innsbruck Airport (LOWI) |
Arrival
| Time | 2026-05-06 19:55 |
|---|---|
| Airport | Frankfurt Main Airport (EDDF) |
| Time | Latitude | Longitude | Altitude | Speed | Heading |
|---|---|---|---|---|---|
| 2026-05-06 18:22 | 47.25849 | 11.35287 | 1897 ft | 0 kts | 171° |
| 2026-05-06 18:51 | 47.25850 | 11.35286 | 1907 ft | 2 kts | 171° |
| 2026-05-06 18:51 | 47.25875 | 11.35280 | 1895 ft | 4 kts | 171° |
| 2026-05-06 18:51 | 47.25895 | 11.35276 | 1900 ft | 4 kts | 191° |
| 2026-05-06 18:52 | 47.25918 | 11.35290 | 1899 ft | 2 kts | 199° |
| 2026-05-06 18:52 | 47.25920 | 11.35291 | 1898 ft | 0 kts | 198° |
| 2026-05-06 18:59 | 47.25915 | 11.35288 | 1907 ft | 4 kts | 204° |
| 2026-05-06 18:59 | 47.25893 | 11.35192 | 1899 ft | 15 kts | 261° |
| 2026-05-06 18:59 | 47.25877 | 11.35048 | 1897 ft | 13 kts | 260° |
| 2026-05-06 18:59 | 47.25858 | 11.34879 | 1907 ft | 19 kts | 261° |
| 2026-05-06 19:00 | 47.25838 | 11.34681 | 1907 ft | 21 kts | 261° |
| 2026-05-06 19:00 | 47.25811 | 11.34444 | 1907 ft | 25 kts | 260° |
| 2026-05-06 19:00 | 47.25783 | 11.34187 | 1901 ft | 26 kts | 261° |
| 2026-05-06 19:00 | 47.25781 | 11.33938 | 1902 ft | 21 kts | 296° |
| 2026-05-06 19:01 | 47.25815 | 11.33868 | 1873 ft | 0 kts | 306° |
| 2026-05-06 19:04 | 47.25815 | 11.33867 | 1873 ft | 1 kts | 306° |
| 2026-05-06 19:04 | 47.25835 | 11.33828 | 1904 ft | 9 kts | 307° |
| 2026-05-06 19:04 | 47.25893 | 11.33713 | 1904 ft | 18 kts | 306° |
| 2026-05-06 19:04 | 47.25925 | 11.33544 | 1908 ft | 19 kts | 264° |
| 2026-05-06 19:05 | 47.25892 | 11.33307 | 1893 ft | 25 kts | 243° |
| 2026-05-06 19:05 | 47.25835 | 11.33100 | 1900 ft | 14 kts | 275° |
| 2026-05-06 19:05 | 47.25883 | 11.33120 | 1900 ft | 8 kts | 77° |
| 2026-05-06 19:05 | 47.25897 | 11.33243 | 1894 ft | 25 kts | 81° |
| 2026-05-06 19:06 | 47.25967 | 11.33883 | 1898 ft | 98 kts | 80° |
| 2026-05-06 19:06 | 47.26084 | 11.35155 | 1998 ft | 142 kts | 93° |
| 2026-05-06 19:06 | 47.26204 | 11.36541 | 2789 ft | 138 kts | 78° |
| 2026-05-06 19:06 | 47.26405 | 11.37969 | 3275 ft | 149 kts | 77° |
| 2026-05-06 19:07 | 47.26636 | 11.39555 | 3549 ft | 170 kts | 79° |
| 2026-05-06 19:07 | 47.26870 | 11.41356 | 3850 ft | 188 kts | 80° |
| 2026-05-06 19:07 | 47.27128 | 11.43333 | 4116 ft | 206 kts | 81° |
| 2026-05-06 19:07 | 47.27446 | 11.45510 | 4359 ft | 228 kts | 78° |
| 2026-05-06 19:08 | 47.27965 | 11.47858 | 4664 ft | 254 kts | 69° |
| 2026-05-06 19:08 | 47.28682 | 11.50343 | 5266 ft | 268 kts | 67° |
| 2026-05-06 19:08 | 47.29443 | 11.52890 | 6093 ft | 275 kts | 68° |
| 2026-05-06 19:08 | 47.30218 | 11.55515 | 6840 ft | 283 kts | 68° |
| 2026-05-06 19:09 | 47.30974 | 11.58217 | 7626 ft | 288 kts | 70° |
| 2026-05-06 19:09 | 47.31733 | 11.60969 | 8451 ft | 292 kts | 70° |
| 2026-05-06 19:09 | 47.32512 | 11.63757 | 9201 ft | 298 kts | 69° |
| 2026-05-06 19:09 | 47.33309 | 11.66561 | 9813 ft | 302 kts | 69° |
| 2026-05-06 19:10 | 47.34139 | 11.69454 | 10342 ft | 316 kts | 69° |
| 2026-05-06 19:10 | 47.35027 | 11.72551 | 10582 ft | 339 kts | 69° |
| 2026-05-06 19:10 | 47.35976 | 11.75858 | 10790 ft | 362 kts | 69° |
| 2026-05-06 19:10 | 47.36973 | 11.79331 | 11269 ft | 372 kts | 68° |
| 2026-05-06 19:11 | 47.37989 | 11.82866 | 11846 ft | 376 kts | 69° |
| 2026-05-06 19:11 | 47.39018 | 11.86456 | 12432 ft | 383 kts | 69° |
| 2026-05-06 19:11 | 47.40057 | 11.90099 | 13145 ft | 388 kts | 69° |
| 2026-05-06 19:11 | 47.41133 | 11.93792 | 13814 ft | 394 kts | 65° |
| 2026-05-06 19:12 | 47.42722 | 11.97120 | 14427 ft | 401 kts | 46° |
| 2026-05-06 19:12 | 47.44938 | 11.99635 | 15038 ft | 404 kts | 27° |
| 2026-05-06 19:12 | 47.47552 | 12.01167 | 15584 ft | 405 kts | 12° |
| 2026-05-06 19:12 | 47.50301 | 12.01654 | 15868 ft | 402 kts | 355° |
| 2026-05-06 19:13 | 47.53046 | 12.01021 | 16167 ft | 399 kts | 339° |
| 2026-05-06 19:13 | 47.55519 | 11.99305 | 16165 ft | 389 kts | 321° |
| 2026-05-06 19:13 | 47.57493 | 11.96642 | 16187 ft | 381 kts | 303° |
| 2026-05-06 19:13 | 47.59014 | 11.93423 | 16717 ft | 382 kts | 300° |
| 2026-05-06 19:14 | 47.60533 | 11.90171 | 17359 ft | 386 kts | 300° |
| 2026-05-06 19:14 | 47.62077 | 11.86904 | 17893 ft | 389 kts | 301° |
| 2026-05-06 19:14 | 47.63650 | 11.83598 | 18390 ft | 393 kts | 301° |
| 2026-05-06 19:14 | 47.65231 | 11.80283 | 18859 ft | 396 kts | 301° |
| 2026-05-06 19:15 | 47.66826 | 11.76934 | 19332 ft | 399 kts | 301° |
| 2026-05-06 19:15 | 47.68430 | 11.73548 | 19813 ft | 402 kts | 301° |
| 2026-05-06 19:15 | 47.70037 | 11.70136 | 20314 ft | 405 kts | 301° |
| 2026-05-06 19:15 | 47.71633 | 11.66733 | 20792 ft | 408 kts | 300° |
| 2026-05-06 19:16 | 47.73261 | 11.63257 | 21252 ft | 411 kts | 300° |
| 2026-05-06 19:16 | 47.74890 | 11.59777 | 21884 ft | 408 kts | 300° |
| 2026-05-06 19:16 | 47.76502 | 11.56330 | 22606 ft | 405 kts | 300° |
| 2026-05-06 19:16 | 47.78100 | 11.52909 | 23353 ft | 400 kts | 300° |
| 2026-05-06 19:17 | 47.79678 | 11.49528 | 23993 ft | 396 kts | 300° |
| 2026-05-06 19:17 | 47.81262 | 11.46138 | 24306 ft | 402 kts | 301° |
| 2026-05-06 19:17 | 47.83090 | 11.42978 | 24908 ft | 404 kts | 311° |
| 2026-05-06 19:17 | 47.85268 | 11.40324 | 25520 ft | 406 kts | 321° |
| 2026-05-06 19:18 | 47.87730 | 11.38252 | 26088 ft | 410 kts | 331° |
| 2026-05-06 19:18 | 47.90459 | 11.36792 | 26208 ft | 425 kts | 342° |
| 2026-05-06 19:18 | 47.93429 | 11.36103 | 26340 ft | 439 kts | 353° |
| 2026-05-06 19:18 | 47.96510 | 11.35866 | 26473 ft | 447 kts | 354° |
| 2026-05-06 19:19 | 47.99643 | 11.35618 | 26604 ft | 455 kts | 354° |
| 2026-05-06 19:19 | 48.02832 | 11.35355 | 26737 ft | 463 kts | 354° |
| 2026-05-06 19:19 | 48.06070 | 11.35078 | 26910 ft | 469 kts | 353° |
| 2026-05-06 19:19 | 48.09327 | 11.34696 | 27173 ft | 471 kts | 352° |
| 2026-05-06 19:20 | 48.12586 | 11.34140 | 27497 ft | 472 kts | 349° |
| 2026-05-06 19:20 | 48.15841 | 11.33465 | 27801 ft | 473 kts | 348° |
| 2026-05-06 19:20 | 48.19106 | 11.32733 | 28078 ft | 475 kts | 348° |
| 2026-05-06 19:20 | 48.22389 | 11.31994 | 28361 ft | 478 kts | 348° |
| 2026-05-06 19:21 | 48.25642 | 11.31292 | 28634 ft | 480 kts | 348° |
| 2026-05-06 19:21 | 48.29009 | 11.30632 | 28900 ft | 483 kts | 350° |
| 2026-05-06 19:21 | 48.32316 | 11.30084 | 29177 ft | 486 kts | 351° |
| 2026-05-06 19:21 | 48.35680 | 11.29592 | 29541 ft | 486 kts | 351° |
| 2026-05-06 19:22 | 48.39042 | 11.29123 | 29935 ft | 485 kts | 351° |
| 2026-05-06 19:22 | 48.42404 | 11.28645 | 30269 ft | 484 kts | 351° |
| 2026-05-06 19:22 | 48.45762 | 11.28146 | 30602 ft | 484 kts | 350° |
| 2026-05-06 19:22 | 48.49117 | 11.27626 | 30891 ft | 485 kts | 350° |
| 2026-05-06 19:23 | 48.52471 | 11.27090 | 31129 ft | 485 kts | 350° |
| 2026-05-06 19:23 | 48.55829 | 11.26547 | 31385 ft | 485 kts | 351° |
| 2026-05-06 19:23 | 48.59191 | 11.26002 | 31642 ft | 485 kts | 351° |
| 2026-05-06 19:23 | 48.62547 | 11.25459 | 31816 ft | 485 kts | 351° |
| 2026-05-06 19:24 | 48.65911 | 11.24916 | 31847 ft | 485 kts | 351° |
| 2026-05-06 19:24 | 48.72627 | 11.23841 | 31832 ft | 485 kts | 351° |
| 2026-05-06 19:24 | 48.75984 | 11.23307 | 32034 ft | 486 kts | 351° |
| 2026-05-06 19:25 | 48.79323 | 11.22592 | 32347 ft | 483 kts | 344° |
| 2026-05-06 19:25 | 48.82533 | 11.21171 | 32653 ft | 478 kts | 334° |
| 2026-05-06 19:25 | 48.85510 | 11.19085 | 33270 ft | 465 kts | 326° |
| 2026-05-06 19:25 | 48.88216 | 11.16476 | 33730 ft | 457 kts | 318° |
| 2026-05-06 19:26 | 48.90636 | 11.13403 | 33835 ft | 451 kts | 312° |
| 2026-05-06 19:26 | 48.95223 | 11.07007 | 33851 ft | 449 kts | 311° |
| 2026-05-06 19:27 | 48.99822 | 11.00562 | 33864 ft | 449 kts | 312° |
| 2026-05-06 19:27 | 49.04423 | 10.94098 | 33885 ft | 450 kts | 312° |
| 2026-05-06 19:28 | 49.09008 | 10.87627 | 33330 ft | 446 kts | 312° |
| 2026-05-06 19:28 | 49.11274 | 10.84426 | 32857 ft | 440 kts | 312° |
| 2026-05-06 19:28 | 49.13512 | 10.81266 | 32364 ft | 436 kts | 312° |
| 2026-05-06 19:28 | 49.15745 | 10.78109 | 31422 ft | 443 kts | 312° |
| 2026-05-06 19:29 | 49.18032 | 10.74855 | 30259 ft | 455 kts | 313° |
| 2026-05-06 19:29 | 49.20358 | 10.71513 | 29009 ft | 464 kts | 312° |
| 2026-05-06 19:29 | 49.21887 | 10.69230 | 28355 ft | 465 kts | 311° |
| 2026-05-06 19:29 | 49.24156 | 10.65709 | 27583 ft | 462 kts | 310° |
| 2026-05-06 19:30 | 49.26322 | 10.62105 | 26870 ft | 457 kts | 304° |
| 2026-05-06 19:30 | 49.28213 | 10.58224 | 26176 ft | 453 kts | 302° |
| 2026-05-06 19:30 | 49.30082 | 10.54361 | 25567 ft | 450 kts | 302° |
| 2026-05-06 19:30 | 49.31938 | 10.50512 | 25300 ft | 449 kts | 302° |
| 2026-05-06 19:31 | 49.33780 | 10.46675 | 24740 ft | 445 kts | 302° |
| 2026-05-06 19:31 | 49.35607 | 10.42859 | 24134 ft | 442 kts | 302° |
| 2026-05-06 19:31 | 49.39228 | 10.35272 | 23280 ft | 439 kts | 302° |
| 2026-05-06 19:32 | 49.41024 | 10.31505 | 22816 ft | 436 kts | 302° |
| 2026-05-06 19:32 | 49.42801 | 10.27768 | 22356 ft | 431 kts | 303° |
| 2026-05-06 19:32 | 49.44554 | 10.24068 | 21899 ft | 426 kts | 303° |
| 2026-05-06 19:32 | 49.46293 | 10.20400 | 21448 ft | 422 kts | 303° |
| 2026-05-06 19:33 | 49.48017 | 10.16768 | 21009 ft | 419 kts | 303° |
| 2026-05-06 19:33 | 49.49726 | 10.13163 | 20571 ft | 415 kts | 303° |
| 2026-05-06 19:33 | 49.51399 | 10.09627 | 20147 ft | 412 kts | 303° |
| 2026-05-06 19:33 | 49.53076 | 10.06070 | 19724 ft | 408 kts | 303° |
| 2026-05-06 19:34 | 49.54734 | 10.02548 | 19295 ft | 403 kts | 303° |
| 2026-05-06 19:34 | 49.56370 | 9.99076 | 18896 ft | 399 kts | 303° |
| 2026-05-06 19:34 | 49.57993 | 9.95627 | 18490 ft | 396 kts | 303° |
| 2026-05-06 19:34 | 49.59600 | 9.92204 | 18087 ft | 393 kts | 303° |
| 2026-05-06 19:35 | 49.61195 | 9.88807 | 17629 ft | 390 kts | 304° |
| 2026-05-06 19:35 | 49.62780 | 9.85441 | 17166 ft | 387 kts | 304° |
| 2026-05-06 19:35 | 49.64353 | 9.82091 | 16718 ft | 384 kts | 304° |
| 2026-05-06 19:35 | 49.65911 | 9.78765 | 16281 ft | 381 kts | 304° |
| 2026-05-06 19:36 | 49.67455 | 9.75460 | 15837 ft | 378 kts | 304° |
| 2026-05-06 19:36 | 49.68983 | 9.72173 | 15409 ft | 375 kts | 304° |
| 2026-05-06 19:36 | 49.70499 | 9.68903 | 14981 ft | 373 kts | 304° |
| 2026-05-06 19:36 | 49.72005 | 9.65653 | 14622 ft | 370 kts | 304° |
| 2026-05-06 19:37 | 49.73484 | 9.62463 | 14382 ft | 369 kts | 304° |
| 2026-05-06 19:37 | 49.74980 | 9.59239 | 14141 ft | 368 kts | 304° |
| 2026-05-06 19:37 | 49.76471 | 9.56029 | 13899 ft | 366 kts | 304° |
| 2026-05-06 19:37 | 49.77953 | 9.52834 | 13657 ft | 365 kts | 304° |
| 2026-05-06 19:38 | 49.79424 | 9.49647 | 13352 ft | 363 kts | 304° |
| 2026-05-06 19:38 | 49.80884 | 9.46478 | 12824 ft | 360 kts | 304° |
| 2026-05-06 19:38 | 49.82329 | 9.43333 | 12297 ft | 357 kts | 304° |
| 2026-05-06 19:38 | 49.83763 | 9.40205 | 11753 ft | 355 kts | 303° |
| 2026-05-06 19:39 | 49.85183 | 9.37097 | 11415 ft | 351 kts | 302° |
| 2026-05-06 19:39 | 49.86338 | 9.33830 | 11159 ft | 341 kts | 291° |
| 2026-05-06 19:39 | 49.87075 | 9.30405 | 10919 ft | 329 kts | 284° |
| 2026-05-06 19:39 | 49.87710 | 9.27064 | 10814 ft | 316 kts | 285° |
| 2026-05-06 19:40 | 49.88321 | 9.23877 | 10829 ft | 303 kts | 285° |
| 2026-05-06 19:40 | 49.88912 | 9.20808 | 10829 ft | 299 kts | 285° |
| 2026-05-06 19:40 | 49.89505 | 9.17718 | 10831 ft | 298 kts | 285° |
| 2026-05-06 19:40 | 49.90094 | 9.14632 | 10830 ft | 298 kts | 284° |
| 2026-05-06 19:41 | 49.90680 | 9.11538 | 10833 ft | 298 kts | 284° |
| 2026-05-06 19:41 | 49.91253 | 9.08509 | 10828 ft | 286 kts | 284° |
| 2026-05-06 19:41 | 49.91802 | 9.05603 | 10701 ft | 276 kts | 284° |
| 2026-05-06 19:41 | 49.92333 | 9.02798 | 10583 ft | 266 kts | 284° |
| 2026-05-06 19:42 | 49.92846 | 9.00089 | 10464 ft | 257 kts | 284° |
| 2026-05-06 19:42 | 49.93336 | 8.97503 | 10328 ft | 249 kts | 284° |
| 2026-05-06 19:42 | 49.93818 | 8.94947 | 10104 ft | 245 kts | 284° |
| 2026-05-06 19:42 | 49.94308 | 8.92414 | 9835 ft | 244 kts | 288° |
| 2026-05-06 19:43 | 49.95176 | 8.90158 | 9538 ft | 246 kts | 310° |
| 2026-05-06 19:43 | 49.96524 | 8.88512 | 9208 ft | 249 kts | 330° |
| 2026-05-06 19:43 | 49.98185 | 8.87702 | 8872 ft | 253 kts | 351° |
| 2026-05-06 19:43 | 49.99946 | 8.87893 | 8531 ft | 257 kts | 14° |
| 2026-05-06 19:44 | 50.01556 | 8.89114 | 8197 ft | 260 kts | 37° |
| 2026-05-06 19:44 | 50.02759 | 8.91197 | 7855 ft | 261 kts | 60° |
| 2026-05-06 19:44 | 50.03455 | 8.93789 | 7504 ft | 260 kts | 71° |
| 2026-05-06 19:44 | 50.04068 | 8.96434 | 7164 ft | 260 kts | 71° |
| 2026-05-06 19:45 | 50.04676 | 8.99046 | 6843 ft | 258 kts | 70° |
| 2026-05-06 19:45 | 50.05289 | 9.01667 | 6535 ft | 257 kts | 70° |
| 2026-05-06 19:45 | 50.05902 | 9.04273 | 6215 ft | 256 kts | 70° |
| 2026-05-06 19:45 | 50.06514 | 9.06870 | 5889 ft | 255 kts | 70° |
| 2026-05-06 19:46 | 50.07165 | 9.09424 | 5617 ft | 252 kts | 60° |
| 2026-05-06 19:46 | 50.08349 | 9.11356 | 5358 ft | 247 kts | 27° |
| 2026-05-06 19:46 | 50.09962 | 9.12054 | 5105 ft | 240 kts | 356° |
| 2026-05-06 19:46 | 50.11579 | 9.11580 | 4978 ft | 236 kts | 335° |
| 2026-05-06 19:47 | 50.12966 | 9.10278 | 4974 ft | 233 kts | 315° |
| 2026-05-06 19:47 | 50.13978 | 9.08343 | 4974 ft | 230 kts | 296° |
| 2026-05-06 19:47 | 50.14509 | 9.06018 | 4977 ft | 228 kts | 277° |
| 2026-05-06 19:47 | 50.14517 | 9.03627 | 4974 ft | 214 kts | 258° |
| 2026-05-06 19:48 | 50.14104 | 9.01515 | 4979 ft | 199 kts | 249° |
| 2026-05-06 19:48 | 50.13651 | 8.99566 | 4995 ft | 182 kts | 250° |
| 2026-05-06 19:48 | 50.13232 | 8.97762 | 4988 ft | 174 kts | 250° |
| 2026-05-06 19:48 | 50.12822 | 8.96006 | 4777 ft | 172 kts | 249° |
| 2026-05-06 19:49 | 50.12413 | 8.94261 | 4500 ft | 171 kts | 250° |
| 2026-05-06 19:49 | 50.12003 | 8.92509 | 4208 ft | 172 kts | 250° |
| 2026-05-06 19:49 | 50.11591 | 8.90756 | 4030 ft | 175 kts | 250° |
| 2026-05-06 19:49 | 50.11166 | 8.88944 | 3988 ft | 179 kts | 250° |
| 2026-05-06 19:50 | 50.10734 | 8.87106 | 3992 ft | 181 kts | 250° |
| 2026-05-06 19:50 | 50.10298 | 8.85253 | 3917 ft | 181 kts | 251° |
| 2026-05-06 19:50 | 50.09880 | 8.83476 | 3727 ft | 174 kts | 251° |
| 2026-05-06 19:50 | 50.09464 | 8.81710 | 3522 ft | 173 kts | 251° |
| 2026-05-06 19:51 | 50.09047 | 8.79940 | 3294 ft | 172 kts | 252° |
| 2026-05-06 19:51 | 50.08635 | 8.78194 | 3064 ft | 171 kts | 252° |
| 2026-05-06 19:51 | 50.08231 | 8.76484 | 2841 ft | 169 kts | 252° |
| 2026-05-06 19:51 | 50.07837 | 8.74817 | 2630 ft | 160 kts | 252° |
| 2026-05-06 19:52 | 50.07468 | 8.73259 | 2401 ft | 146 kts | 253° |
| 2026-05-06 19:52 | 50.07129 | 8.71828 | 2206 ft | 137 kts | 253° |
| 2026-05-06 19:52 | 50.06804 | 8.70452 | 2025 ft | 133 kts | 253° |
| 2026-05-06 19:52 | 50.06483 | 8.69095 | 1847 ft | 134 kts | 253° |
| 2026-05-06 19:53 | 50.06157 | 8.67736 | 1642 ft | 135 kts | 252° |
| 2026-05-06 19:53 | 50.05824 | 8.66375 | 1431 ft | 134 kts | 252° |
| 2026-05-06 19:53 | 50.05497 | 8.65010 | 1240 ft | 135 kts | 253° |
| 2026-05-06 19:53 | 50.05182 | 8.63624 | 1093 ft | 136 kts | 252° |
| 2026-05-06 19:54 | 50.04871 | 8.62224 | 904 ft | 137 kts | 253° |
| 2026-05-06 19:54 | 50.04544 | 8.60840 | 739 ft | 137 kts | 250° |
| 2026-05-06 19:54 | 50.04199 | 8.59467 | 511 ft | 136 kts | 251° |
| 2026-05-06 19:54 | 50.03867 | 8.58106 | 376 ft | 134 kts | 252° |
| 2026-05-06 19:55 | 50.03591 | 8.56901 | 358 ft | 96 kts | 251° |
| 2026-05-06 19:55 | 50.03430 | 8.56206 | 358 ft | 22 kts | 258° |
| 2026-05-06 19:55 | 50.03445 | 8.56009 | 347 ft | 20 kts | 279° |